Talitha — ZCAN7 — position and weather

sailwx.info

Track history (hours):
 
Tides and Currents Weather Stations Pressure Air Temp Water Temp Dewpoint Dewpoint Depression Visibility Wind Speed Wind Dir Waves Ship Positions

Talitha

Last reported at 2018-Apr-24 00:55 UTC. Time now 2018-Apr-25 08:39 UTC.
Position N 41°22' E 002°11'.

Length 80 m; draft 3.7 m.

Type: Pleasure craft. MMSI: 310051000.

Date/timePositionNaut miles runAvg speedWind from/ knotsBaromVisibWave heightAir tempDewpointWater temp
2018-Apr-24 00:55N 41°22' E 002°11'0 0.0
2018-Apr-24 00:25N 41°22' E 002°11'0 0.0
2018-Apr-23 23:55N 41°22' E 002°11'0 0.0
2018-Apr-23 23:25N 41°22' E 002°11'0 0.0
2018-Apr-23 22:55N 41°22' E 002°11'0 0.0
2018-Apr-23 21:19N 41°22' E 002°11'0 0.0
2018-Apr-23 18:13N 41°22' E 002°11'0 0.0
2018-Apr-23 07:55N 41°22' E 002°11'0 0.0
2018-Apr-23 07:28N 41°22' E 002°11'0 0.0
2018-Apr-21 10:42N 41°22' E 002°11'0 0.0
2018-Apr-20 08:15N 41°22' E 002°11'0 0.0
2018-Apr-20 08:00N 41°22' E 002°11'1 2.4
2018-Apr-20 07:31N 41°21' E 002°11'0 0.4
2018-Apr-20 07:00N 41°21' E 002°11'0 0.5
2018-Apr-20 06:31N 41°21' E 002°11'0 0.2
2018-Apr-20 06:01N 41°21' E 002°11'1 1.6
2018-Apr-20 05:31N 41°20' E 002°12'0 0.1
2018-Apr-20 04:55N 41°20' E 002°11'0 0.0
2018-Apr-20 04:28N 41°20' E 002°11'0 0.0
2018-Apr-20 03:58N 41°20' E 002°11'0 0.0
2018-Apr-20 03:28N 41°20' E 002°11'0 0.0
2018-Apr-20 02:55N 41°20' E 002°11'0 0.0
2018-Apr-20 02:28N 41°20' E 002°11'0 0.0
2018-Apr-20 01:58N 41°20' E 002°11'0 0.0
2018-Apr-20 01:28N 41°20' E 002°11'0 0.0
2018-Apr-20 00:58N 41°20' E 002°11'0 0.0
2018-Apr-20 00:28N 41°20' E 002°11'0 0.0
2018-Apr-19 23:58N 41°20' E 002°11'0 0.0
2018-Apr-19 23:28N 41°20' E 002°11'0 0.0
2018-Apr-19 22:58N 41°20' E 002°11'0 0.0
2018-Apr-19 22:28N 41°20' E 002°11'0 0.0
2018-Apr-19 21:58N 41°20' E 002°11'0 0.0
2018-Apr-19 21:28N 41°20' E 002°11'0 0.0
2018-Apr-19 20:58N 41°20' E 002°11'0 0.0
2018-Apr-19 20:28N 41°20' E 002°11'0 0.0
2018-Apr-19 19:58N 41°20' E 002°11'0 0.0
2018-Apr-19 19:28N 41°20' E 002°11'0 0.0
2018-Apr-19 18:58N 41°20' E 002°11'0 0.0
2018-Apr-19 18:28N 41°20' E 002°11'0 0.0
2018-Apr-19 17:58N 41°20' E 002°11'0 0.0
2018-Apr-19 17:28N 41°20' E 002°11'0 0.0
2018-Apr-19 16:58N 41°20' E 002°11'0 0.0
2018-Apr-19 16:28N 41°20' E 002°11'0 0.1
2018-Apr-19 16:00N 41°20' E 002°12'510.7
2018-Apr-19 15:30N 41°21' E 002°18'612.3
2018-Apr-19 15:00N 41°23' E 002°26'612.3
2018-Apr-19 14:30N 41°26' E 002°34'1611.5
2018-Apr-19 13:06N 41°36' E 002°51'210.5
2018-Apr-19 12:55N 41°37' E 002°52'12 0.8
2018-Apr-18 23:00N 41°26' E 002°52'24210.4
2018-Apr-17 23:40N 38°05' W 000°04'811.9
2018-Apr-17 23:00N 37°58' W 000°10'1912.0
2018-Apr-17 21:27N 37°43' W 000°23'612.2
2018-Apr-17 21:00N 37°38' W 000°27'712.5
2018-Apr-17 20:28N 37°33' W 000°31'912.8
2018-Apr-17 19:46N 37°27' W 000°40'312.3
2018-Apr-17 19:30N 37°25' W 000°43'612.2
2018-Apr-17 19:01N 37°21' W 000°49'711.6
2018-Apr-17 18:26N 37°17' W 000°55'225 8.3
2018-Apr-16 15:19N 36°09' W 005°22'0 0.0
2018-Apr-16 14:58N 36°09' W 005°22'0 0.0
2018-Apr-16 14:28N 36°09' W 005°22'0 0.0
2018-Apr-16 13:58N 36°09' W 005°22'0 0.0
2018-Apr-16 13:28N 36°09' W 005°22'0 0.0
2018-Apr-16 10:52N 36°09' W 005°22'0 0.0
2018-Apr-16 10:22N 36°09' W 005°22'2 2.5
2018-Apr-16 09:38N 36°07' W 005°22'3 1.9
2018-Apr-16 07:54N 36°07' W 005°18'2 4.3
2018-Apr-16 07:30N 36°06' W 005°19'3 5.6
2018-Apr-16 07:00N 36°04' W 005°22'612.9
2018-Apr-16 06:30N 35°59' W 005°26'  
Track history (hours):
 
Tides and Currents Weather Stations Pressure Air Temp Water Temp Dewpoint Dewpoint Depression Visibility Wind Speed Wind Dir Waves Ship Positions

Talitha

Last reported at 2018-Apr-24 00:55 UTC. Time now 2018-Apr-25 08:39 UTC.
Position N 41°22' E 002°11'.

Length 80 m; draft 3.7 m.

Type: Pleasure craft. MMSI: 310051000.

Date/timePositionNaut miles runAvg speedWind from/ knotsBaromVisibWave heightAir tempDewpointWater temp
2018-Apr-24 00:55N 41°22' E 002°11'0 0.0
2018-Apr-24 00:25N 41°22' E 002°11'0 0.0
2018-Apr-23 23:55N 41°22' E 002°11'0 0.0
2018-Apr-23 23:25N 41°22' E 002°11'0 0.0
2018-Apr-23 22:55N 41°22' E 002°11'0 0.0
2018-Apr-23 21:19N 41°22' E 002°11'0 0.0
2018-Apr-23 18:13N 41°22' E 002°11'0 0.0
2018-Apr-23 07:55N 41°22' E 002°11'0 0.0
2018-Apr-23 07:28N 41°22' E 002°11'0 0.0
2018-Apr-21 10:42N 41°22' E 002°11'0 0.0
2018-Apr-20 08:15N 41°22' E 002°11'0 0.0
2018-Apr-20 08:00N 41°22' E 002°11'1 2.4
2018-Apr-20 07:31N 41°21' E 002°11'0 0.4
2018-Apr-20 07:00N 41°21' E 002°11'0 0.5
2018-Apr-20 06:31N 41°21' E 002°11'0 0.2
2018-Apr-20 06:01N 41°21' E 002°11'1 1.6
2018-Apr-20 05:31N 41°20' E 002°12'0 0.1
2018-Apr-20 04:55N 41°20' E 002°11'0 0.0
2018-Apr-20 04:28N 41°20' E 002°11'0 0.0
2018-Apr-20 03:58N 41°20' E 002°11'0 0.0
2018-Apr-20 03:28N 41°20' E 002°11'0 0.0
2018-Apr-20 02:55N 41°20' E 002°11'0 0.0
2018-Apr-20 02:28N 41°20' E 002°11'0 0.0
2018-Apr-20 01:58N 41°20' E 002°11'0 0.0
2018-Apr-20 01:28N 41°20' E 002°11'0 0.0
2018-Apr-20 00:58N 41°20' E 002°11'0 0.0
2018-Apr-20 00:28N 41°20' E 002°11'0 0.0
2018-Apr-19 23:58N 41°20' E 002°11'0 0.0
2018-Apr-19 23:28N 41°20' E 002°11'0 0.0
2018-Apr-19 22:58N 41°20' E 002°11'0 0.0
2018-Apr-19 22:28N 41°20' E 002°11'0 0.0
2018-Apr-19 21:58N 41°20' E 002°11'0 0.0
2018-Apr-19 21:28N 41°20' E 002°11'0 0.0
2018-Apr-19 20:58N 41°20' E 002°11'0 0.0
2018-Apr-19 20:28N 41°20' E 002°11'0 0.0
2018-Apr-19 19:58N 41°20' E 002°11'0 0.0
2018-Apr-19 19:28N 41°20' E 002°11'0 0.0
2018-Apr-19 18:58N 41°20' E 002°11'0 0.0
2018-Apr-19 18:28N 41°20' E 002°11'0 0.0
2018-Apr-19 17:58N 41°20' E 002°11'0 0.0
2018-Apr-19 17:28N 41°20' E 002°11'0 0.0
2018-Apr-19 16:58N 41°20' E 002°11'0 0.0
2018-Apr-19 16:28N 41°20' E 002°11'0 0.1
2018-Apr-19 16:00N 41°20' E 002°12'510.7
2018-Apr-19 15:30N 41°21' E 002°18'612.3
2018-Apr-19 15:00N 41°23' E 002°26'612.3
2018-Apr-19 14:30N 41°26' E 002°34'1611.5
2018-Apr-19 13:06N 41°36' E 002°51'210.5
2018-Apr-19 12:55N 41°37' E 002°52'12 0.8
2018-Apr-18 23:00N 41°26' E 002°52'24210.4
2018-Apr-17 23:40N 38°05' W 000°04'811.9
2018-Apr-17 23:00N 37°58' W 000°10'1912.0
2018-Apr-17 21:27N 37°43' W 000°23'612.2
2018-Apr-17 21:00N 37°38' W 000°27'712.5
2018-Apr-17 20:28N 37°33' W 000°31'912.8
2018-Apr-17 19:46N 37°27' W 000°40'312.3
2018-Apr-17 19:30N 37°25' W 000°43'612.2
2018-Apr-17 19:01N 37°21' W 000°49'711.6
2018-Apr-17 18:26N 37°17' W 000°55'225 8.3
2018-Apr-16 15:19N 36°09' W 005°22'0 0.0
2018-Apr-16 14:58N 36°09' W 005°22'0 0.0
2018-Apr-16 14:28N 36°09' W 005°22'0 0.0
2018-Apr-16 13:58N 36°09' W 005°22'0 0.0
2018-Apr-16 13:28N 36°09' W 005°22'0 0.0
2018-Apr-16 10:52N 36°09' W 005°22'0 0.0
2018-Apr-16 10:22N 36°09' W 005°22'2 2.5
2018-Apr-16 09:38N 36°07' W 005°22'3 1.9
2018-Apr-16 07:54N 36°07' W 005°18'2 4.3
2018-Apr-16 07:30N 36°06' W 005°19'3 5.6
2018-Apr-16 07:00N 36°04' W 005°22'612.9
2018-Apr-16 06:30N 35°59' W 005°26'  

Dump ship's entire track history